createdAt,value
2019-01-24T00:00:38.045Z,-3.30
2019-01-24T00:03:06.647Z,-3.40
2019-01-24T00:05:35.107Z,-3.50
2019-01-24T00:08:03.645Z,-3.50
2019-01-24T00:10:32.170Z,-3.40
2019-01-24T00:13:00.634Z,-3.40
2019-01-24T00:15:29.081Z,-3.40
2019-01-24T00:17:57.555Z,-3.50
2019-01-24T00:20:26.162Z,-3.50
2019-01-24T00:22:54.615Z,-3.40
2019-01-24T00:25:23.142Z,-3.40
2019-01-24T00:27:51.594Z,-3.50
2019-01-24T00:30:20.057Z,-3.50
2019-01-24T00:32:48.577Z,-3.60
2019-01-24T00:35:17.043Z,-3.50
2019-01-24T00:37:45.490Z,-3.40
2019-01-24T00:40:21.377Z,-3.40
2019-01-24T00:42:49.983Z,-3.30
2019-01-24T00:45:19.069Z,-3.20
2019-01-24T00:47:47.613Z,-3.10
2019-01-24T00:50:16.705Z,-3.10
2019-01-24T00:52:45.302Z,-3.20
2019-01-24T00:55:15.407Z,-3.20
2019-01-24T00:57:44.081Z,-3.20
2019-01-24T01:00:24.216Z,-3.30
2019-01-24T01:02:53.025Z,-3.30
2019-01-24T01:05:21.638Z,-3.40
2019-01-24T01:07:50.402Z,-3.40
2019-01-24T01:10:19.083Z,-3.40
2019-01-24T01:12:47.712Z,-3.30
2019-01-24T01:15:20.937Z,-3.30
2019-01-24T01:17:49.491Z,-3.30
2019-01-24T01:20:20.567Z,-3.30
2019-01-24T01:22:49.425Z,-3.20
2019-01-24T01:25:18.058Z,-3.10
2019-01-24T01:27:46.662Z,-3.00
2019-01-24T01:30:20.565Z,-3.00
2019-01-24T01:32:49.649Z,-3.00
2019-01-24T01:35:18.541Z,-3.00
2019-01-24T01:37:47.238Z,-3.10
2019-01-24T01:40:18.140Z,-3.10
2019-01-24T01:42:46.821Z,-3.10
2019-01-24T01:45:17.894Z,-3.00
2019-01-24T01:47:46.485Z,-3.10
2019-01-24T01:50:17.504Z,-3.20
2019-01-24T01:52:46.012Z,-3.20
2019-01-24T01:55:14.614Z,-3.40
2019-01-24T01:57:43.161Z,-3.40
2019-01-24T02:00:20.565Z,-3.30
2019-01-24T02:02:49.113Z,-3.10
2019-01-24T02:05:17.701Z,-3.10
2019-01-24T02:07:46.225Z,-3.10
2019-01-24T02:10:20.545Z,-3.00
2019-01-24T02:12:49.349Z,-3.00
2019-01-24T02:15:18.457Z,-3.00
2019-01-24T02:17:47.358Z,-3.00
2019-01-24T02:20:20.601Z,-3.00
2019-01-24T02:22:49.612Z,-3.00
2019-01-24T02:25:18.135Z,-2.90
2019-01-24T02:27:46.721Z,-3.00
2019-01-24T02:30:24.146Z,-2.90
2019-01-24T02:32:52.949Z,-3.00
2019-01-24T02:35:21.535Z,-3.00
2019-01-24T02:37:50.177Z,-3.10
2019-01-24T02:40:18.779Z,-3.10
2019-01-24T02:42:47.302Z,-3.20
2019-01-24T02:45:25.509Z,-3.30
2019-01-24T02:47:54.433Z,-3.30
2019-01-24T02:50:23.831Z,-3.20
2019-01-24T02:52:52.438Z,-3.20
2019-01-24T02:55:21.031Z,-3.20
2019-01-24T02:57:49.490Z,-3.10
2019-01-24T03:00:20.526Z,-3.10
2019-01-24T03:02:49.416Z,-3.10
2019-01-24T03:05:19.917Z,-3.10
2019-01-24T03:07:48.879Z,-3.10
2019-01-24T03:10:17.477Z,-3.00
2019-01-24T03:12:46.065Z,-2.90
2019-01-24T03:15:17.249Z,-2.90
2019-01-24T03:17:46.137Z,-2.90
2019-01-24T03:20:16.433Z,-2.90
2019-01-24T03:22:45.925Z,-2.90
2019-01-24T03:25:16.037Z,-2.80
2019-01-24T03:27:44.640Z,-2.80
2019-01-24T03:30:21.354Z,-2.80
2019-01-24T03:32:50.252Z,-2.90
2019-01-24T03:35:24.175Z,-3.00
2019-01-24T03:37:52.705Z,-3.10
2019-01-24T03:40:21.294Z,-3.10
2019-01-24T03:42:49.818Z,-3.10
2019-01-24T03:45:18.616Z,-3.00
2019-01-24T03:47:47.430Z,-3.00
2019-01-24T03:50:20.794Z,-2.90
2019-01-24T03:52:49.789Z,-2.90
2019-01-24T03:55:19.986Z,-2.90
2019-01-24T03:57:48.784Z,-2.90
2019-01-24T04:00:19.447Z,-2.90
2019-01-24T04:02:48.126Z,-2.90
2019-01-24T04:05:16.838Z,-3.00
2019-01-24T04:07:45.370Z,-3.00
2019-01-24T04:10:19.283Z,-2.90
2019-01-24T04:12:47.745Z,-2.90
2019-01-24T04:15:18.709Z,-2.90
2019-01-24T04:17:47.188Z,-2.90
2019-01-24T04:20:16.133Z,-3.00
2019-01-24T04:22:44.585Z,-3.00
2019-01-24T04:25:13.222Z,-2.90
2019-01-24T04:27:41.725Z,-2.90
2019-01-24T04:30:18.806Z,-2.90
2019-01-24T04:32:47.545Z,-2.90
2019-01-24T04:35:20.029Z,-2.90
2019-01-24T04:37:46.901Z,-2.90
2019-01-24T04:40:17.392Z,-2.90
2019-01-24T04:42:46.200Z,-3.00
2019-01-24T04:45:16.286Z,-3.00
2019-01-24T04:47:44.926Z,-3.00
2019-01-24T04:50:15.877Z,-3.10
2019-01-24T04:52:44.426Z,-3.10
2019-01-24T04:55:17.745Z,-3.10
2019-01-24T04:57:46.280Z,-3.20
2019-01-24T05:00:20.486Z,-3.30
2019-01-24T05:02:49.018Z,-3.30
2019-01-24T05:05:17.485Z,-3.30
2019-01-24T05:07:45.941Z,-3.30
2019-01-24T05:10:14.642Z,-3.20
2019-01-24T05:12:43.097Z,-3.20
2019-01-24T05:15:12.474Z,-3.20
2019-01-24T05:17:40.924Z,-3.10
2019-01-24T05:20:11.522Z,-3.10
2019-01-24T05:22:39.975Z,-3.00
2019-01-24T05:25:11.291Z,-3.00
2019-01-24T05:27:39.905Z,-3.00
2019-01-24T05:30:23.124Z,-3.10
2019-01-24T05:32:51.574Z,-3.10
2019-01-24T05:35:20.105Z,-3.10
2019-01-24T05:37:48.569Z,-3.20
2019-01-24T05:40:17.047Z,-3.10
2019-01-24T05:42:45.527Z,-3.10
2019-01-24T05:45:14.917Z,-3.10
2019-01-24T05:47:43.442Z,-3.10
2019-01-24T05:50:13.241Z,-3.10
2019-01-24T05:52:41.758Z,-3.20
2019-01-24T05:55:12.063Z,-3.20
2019-01-24T05:57:40.662Z,-3.20
2019-01-24T06:00:12.336Z,-3.20
2019-01-24T06:02:40.866Z,-3.20
2019-01-24T06:05:12.075Z,-3.20
2019-01-24T06:07:40.521Z,-3.10
2019-01-24T06:10:14.601Z,-3.10
2019-01-24T06:12:43.050Z,-3.00
2019-01-24T06:15:14.522Z,-3.00
2019-01-24T06:17:43.049Z,-2.90
2019-01-24T06:20:12.138Z,-2.90
2019-01-24T06:22:40.674Z,-2.80
2019-01-24T06:25:14.058Z,-2.80
2019-01-24T06:27:42.926Z,-2.80
2019-01-24T06:30:19.731Z,-2.80
2019-01-24T06:32:48.245Z,-2.80
2019-01-24T06:35:16.710Z,-2.80
2019-01-24T06:37:45.236Z,-2.80
2019-01-24T06:40:15.645Z,-2.80
2019-01-24T06:42:44.089Z,-2.70
2019-01-24T06:45:15.669Z,-2.80
2019-01-24T06:47:44.122Z,-2.90
2019-01-24T06:50:14.528Z,-3.00
2019-01-24T06:52:43.112Z,-3.00
2019-01-24T06:55:14.996Z,-3.00
2019-01-24T06:57:43.445Z,-3.00
2019-01-24T07:00:17.045Z,-3.00
2019-01-24T07:02:45.645Z,-3.00
2019-01-24T07:05:14.302Z,-3.00
2019-01-24T07:07:42.934Z,-3.00
2019-01-24T07:10:16.502Z,-2.90
2019-01-24T07:12:45.030Z,-2.80
2019-01-24T07:15:16.403Z,-2.90
2019-01-24T07:17:44.849Z,-2.90
2019-01-24T07:20:15.762Z,-2.80
2019-01-24T07:22:44.437Z,-2.80
2019-01-24T07:25:16.089Z,-2.70
2019-01-24T07:27:44.553Z,-2.70
2019-01-24T07:30:15.641Z,-2.70
2019-01-24T07:32:44.237Z,-2.70
2019-01-24T07:35:16.981Z,-2.60
2019-01-24T07:37:45.666Z,-2.50
2019-01-24T07:40:16.642Z,-2.50
2019-01-24T07:42:45.166Z,-2.40
2019-01-24T07:45:25.218Z,-2.30
2019-01-24T07:47:53.668Z,-2.30
2019-01-24T07:50:22.489Z,-2.30
2019-01-24T07:52:50.941Z,-2.20
2019-01-24T07:55:19.521Z,-2.20
2019-01-24T07:57:48.055Z,-2.10
2019-01-24T08:00:25.278Z,-2.00
2019-01-24T08:02:53.818Z,-2.10
2019-01-24T08:05:23.172Z,-2.10
2019-01-24T08:07:51.627Z,-2.00
2019-01-24T08:10:21.940Z,-2.00
2019-01-24T08:12:50.449Z,-2.00
2019-01-24T08:15:20.757Z,-2.00
2019-01-24T08:17:50.191Z,-2.00
2019-01-24T08:20:27.096Z,-2.00
2019-01-24T08:22:55.537Z,-2.10
2019-01-24T08:25:24.241Z,-2.00
2019-01-24T08:27:52.912Z,-1.90
2019-01-24T08:30:26.521Z,-1.90
2019-01-24T08:32:55.101Z,-1.70
2019-01-24T08:35:23.805Z,-1.60
2019-01-24T08:37:52.451Z,-1.50
2019-01-24T08:40:22.644Z,-1.40
2019-01-24T08:42:51.102Z,-1.40
2019-01-24T08:45:19.786Z,-1.30
2019-01-24T08:47:48.321Z,-1.20
2019-01-24T08:50:19.381Z,-1.20
2019-01-24T08:52:47.965Z,-1.10
2019-01-24T08:55:22.412Z,-1.10
2019-01-24T08:57:50.857Z,-1.20
2019-01-24T09:00:22.570Z,-1.30
2019-01-24T09:02:51.768Z,-1.20
2019-01-24T09:05:20.461Z,-1.10
2019-01-24T09:07:49.193Z,-1.00
2019-01-24T09:10:23.478Z,-0.90
2019-01-24T09:12:51.993Z,-0.70
2019-01-24T09:15:20.595Z,-0.60
2019-01-24T09:17:49.031Z,-0.50
2019-01-24T09:20:19.541Z,-0.50
2019-01-24T09:22:54.963Z,-0.50
2019-01-24T09:25:18.634Z,-0.40
2019-01-24T09:27:47.151Z,-0.20
2019-01-24T09:30:26.687Z,-0.20
2019-01-24T09:32:55.330Z,-0.10
2019-01-24T09:35:23.909Z,0.00
2019-01-24T09:37:52.425Z,0.00
2019-01-24T09:40:22.418Z,0.10
2019-01-24T09:42:51.424Z,0.10
2019-01-24T09:45:27.692Z,0.10
2019-01-24T09:47:57.800Z,0.20
2019-01-24T09:50:27.378Z,0.20
2019-01-24T09:52:55.895Z,0.20
2019-01-24T09:55:24.423Z,0.20
2019-01-24T09:57:53.398Z,0.20
2019-01-24T10:00:24.929Z,0.30
2019-01-24T10:02:53.525Z,0.30
2019-01-24T10:05:22.411Z,0.60
2019-01-24T10:07:51.001Z,0.50
2019-01-24T10:10:21.405Z,0.40
2019-01-24T10:12:50.190Z,0.80
2019-01-24T10:15:19.989Z,0.90
2019-01-24T10:17:48.501Z,1.00
2019-01-24T10:20:19.568Z,0.90
2019-01-24T10:22:48.172Z,0.90
2019-01-24T10:25:22.381Z,0.80
2019-01-24T10:27:50.834Z,0.90
2019-01-24T10:30:21.420Z,0.80
2019-01-24T10:32:49.948Z,0.70
2019-01-24T10:35:18.389Z,0.90
2019-01-24T10:37:46.945Z,0.80
2019-01-24T10:40:23.635Z,0.80
2019-01-24T10:42:52.241Z,0.80
2019-01-24T10:45:21.738Z,0.80
2019-01-24T10:47:51.824Z,0.80
2019-01-24T10:50:22.590Z,0.70
2019-01-24T10:52:51.029Z,0.60
2019-01-24T10:55:21.420Z,0.70
2019-01-24T10:57:50.918Z,0.70
2019-01-24T11:00:22.440Z,0.90
2019-01-24T11:02:50.894Z,0.70
2019-01-24T11:05:20.785Z,0.80
2019-01-24T11:07:49.380Z,0.80
2019-01-24T11:10:20.066Z,1.00
2019-01-24T11:12:49.234Z,1.10
2019-01-24T11:15:20.358Z,1.20
2019-01-24T11:17:48.879Z,1.40
2019-01-24T11:20:18.960Z,1.40
2019-01-24T11:22:48.257Z,1.50
2019-01-24T11:25:19.914Z,1.60
2019-01-24T11:27:48.515Z,1.80
2019-01-24T11:30:30.524Z,1.80
2019-01-24T11:32:59.519Z,1.80
2019-01-24T11:35:33.642Z,1.80
2019-01-24T11:38:02.224Z,1.70
2019-01-24T11:40:30.839Z,1.90
2019-01-24T11:42:59.354Z,1.90
2019-01-24T11:45:33.350Z,1.70
2019-01-24T11:48:01.795Z,1.50
2019-01-24T11:50:30.235Z,1.60
2019-01-24T11:52:58.692Z,1.80
2019-01-24T11:55:27.201Z,1.80
2019-01-24T11:57:55.926Z,1.90
2019-01-24T12:00:34.523Z,1.90
2019-01-24T12:03:03.116Z,1.90
2019-01-24T12:05:31.614Z,2.00
2019-01-24T12:08:00.434Z,1.90
2019-01-24T12:10:30.409Z,2.00
2019-01-24T12:12:58.922Z,2.10
2019-01-24T12:15:31.550Z,2.30
2019-01-24T12:17:59.992Z,1.80
2019-01-24T12:20:28.721Z,1.80
2019-01-24T12:22:57.244Z,1.80
2019-01-24T12:25:25.830Z,1.80
2019-01-24T12:27:54.361Z,1.90
2019-01-24T12:30:25.502Z,2.00
2019-01-24T12:32:54.106Z,2.00
2019-01-24T12:35:22.621Z,1.80
2019-01-24T12:37:51.158Z,1.60
2019-01-24T12:40:19.698Z,1.50
2019-01-24T12:42:48.221Z,1.40
2019-01-24T12:45:22.418Z,1.50
2019-01-24T12:47:50.864Z,1.60
2019-01-24T12:50:19.618Z,1.70
2019-01-24T12:52:48.102Z,1.80
2019-01-24T12:55:17.301Z,1.80
2019-01-24T12:57:45.897Z,1.80
2019-01-24T13:00:32.318Z,1.80
2019-01-24T13:03:00.910Z,1.80
2019-01-24T13:05:29.423Z,1.80
2019-01-24T13:07:57.950Z,1.80
2019-01-24T13:10:28.050Z,1.90
2019-01-24T13:12:56.486Z,2.00
2019-01-24T13:15:28.021Z,1.90
2019-01-24T13:17:56.638Z,1.90
2019-01-24T13:20:25.276Z,2.00
2019-01-24T13:22:53.797Z,2.00
2019-01-24T13:25:30.505Z,2.00
2019-01-24T13:27:59.016Z,2.00
2019-01-24T13:30:29.619Z,2.00
2019-01-24T13:32:58.222Z,1.90
2019-01-24T13:35:26.881Z,2.00
2019-01-24T13:37:55.392Z,1.90
2019-01-24T13:40:26.206Z,1.90
2019-01-24T13:42:54.782Z,1.90
2019-01-24T13:45:31.490Z,1.80
2019-01-24T13:48:00.092Z,1.90
2019-01-24T13:50:28.557Z,2.00
2019-01-24T13:52:57.026Z,2.10
2019-01-24T13:55:25.537Z,2.10
2019-01-24T13:57:53.973Z,2.00
2019-01-24T14:00:25.510Z,2.10
2019-01-24T14:02:57.363Z,2.00
2019-01-24T14:05:26.699Z,1.90
2019-01-24T14:07:55.141Z,2.00
2019-01-24T14:10:23.599Z,2.00
2019-01-24T14:12:52.037Z,1.90
2019-01-24T14:15:20.638Z,1.80
2019-01-24T14:17:49.089Z,1.60
2019-01-24T14:20:21.754Z,1.40
2019-01-24T14:22:50.285Z,1.40
2019-01-24T14:25:20.069Z,1.30
2019-01-24T14:27:48.515Z,1.20
2019-01-24T14:30:19.827Z,1.10
2019-01-24T14:32:48.337Z,1.10
2019-01-24T14:35:16.937Z,1.10
2019-01-24T14:37:45.460Z,1.10
2019-01-24T14:40:15.128Z,1.00
2019-01-24T14:42:43.725Z,0.90
2019-01-24T14:45:15.175Z,0.90
2019-01-24T14:47:43.778Z,0.90
2019-01-24T14:50:15.429Z,0.80
2019-01-24T14:52:43.941Z,0.80
2019-01-24T14:55:13.439Z,0.80
2019-01-24T14:57:42.023Z,0.70
2019-01-24T15:00:19.183Z,0.50
2019-01-24T15:02:47.699Z,0.50
2019-01-24T15:05:16.290Z,0.50
2019-01-24T15:07:47.479Z,0.40
2019-01-24T15:10:15.964Z,0.40
2019-01-24T15:12:44.469Z,0.30
2019-01-24T15:15:17.430Z,0.20
2019-01-24T15:17:46.013Z,0.00
2019-01-24T15:20:16.520Z,-0.10
2019-01-24T15:22:45.030Z,-0.20
2019-01-24T15:25:16.029Z,-0.30
2019-01-24T15:27:44.723Z,-0.40
2019-01-24T15:30:21.529Z,-0.50
2019-01-24T15:32:50.047Z,-0.60
2019-01-24T15:35:19.146Z,-0.60
2019-01-24T15:37:54.065Z,-0.70
2019-01-24T15:40:20.804Z,-0.90
2019-01-24T15:42:49.429Z,-0.90
2019-01-24T15:45:18.713Z,-0.90
2019-01-24T15:47:47.318Z,-0.90
2019-01-24T15:50:18.079Z,-0.90
2019-01-24T15:52:46.771Z,-1.00
2019-01-24T15:55:15.342Z,-1.10
2019-01-24T15:57:43.857Z,-1.30
2019-01-24T16:00:18.689Z,-1.40
2019-01-24T16:02:47.275Z,-1.40
2019-01-24T16:05:15.745Z,-1.50
2019-01-24T16:07:44.382Z,-1.60
2019-01-24T16:10:18.326Z,-1.60
2019-01-24T16:12:46.858Z,-1.70
2019-01-24T16:15:33.749Z,-1.70
2019-01-24T16:18:02.302Z,-1.60
2019-01-24T16:20:31.216Z,-1.70
2019-01-24T16:22:59.785Z,-1.70
2019-01-24T16:25:31.165Z,-1.60
2019-01-24T16:27:59.692Z,-1.70
2019-01-24T16:30:33.194Z,-1.70
2019-01-24T16:33:02.301Z,-1.70
2019-01-24T16:35:31.772Z,-1.80
2019-01-24T16:38:00.606Z,-2.00
2019-01-24T16:40:30.081Z,-2.00
2019-01-24T16:42:58.881Z,-2.00
2019-01-24T16:45:29.076Z,-1.90
2019-01-24T16:47:57.763Z,-2.00
2019-01-24T16:50:27.572Z,-2.10
2019-01-24T16:52:56.103Z,-2.20
2019-01-24T16:55:24.702Z,-2.40
2019-01-24T16:57:53.784Z,-2.50
2019-01-24T17:00:28.437Z,-2.50
2019-01-24T17:02:57.025Z,-2.50
2019-01-24T17:05:25.556Z,-2.70
2019-01-24T17:07:54.161Z,-2.70
2019-01-24T17:10:24.559Z,-2.70
2019-01-24T17:12:53.025Z,-2.70
2019-01-24T17:15:21.609Z,-2.70
2019-01-24T17:17:50.078Z,-2.60
2019-01-24T17:20:24.244Z,-2.60
2019-01-24T17:22:52.825Z,-2.60
2019-01-24T17:25:22.428Z,-2.60
2019-01-24T17:27:50.883Z,-2.60
2019-01-24T17:30:22.233Z,-2.60
2019-01-24T17:32:51.031Z,-2.70
2019-01-24T17:35:19.938Z,-2.80
2019-01-24T17:37:48.621Z,-3.00
2019-01-24T17:40:32.033Z,-3.10
2019-01-24T17:43:03.678Z,-3.20
2019-01-24T17:45:32.394Z,-3.30
2019-01-24T17:48:01.038Z,-3.10
2019-01-24T17:50:29.553Z,-3.20
2019-01-24T17:52:58.074Z,-3.20
2019-01-24T17:55:35.101Z,-3.20
2019-01-24T17:58:04.502Z,-3.10
2019-01-24T18:00:34.701Z,-3.10
2019-01-24T18:03:03.150Z,-3.20
2019-01-24T18:05:31.712Z,-3.20
2019-01-24T18:08:00.302Z,-3.10
2019-01-24T18:10:30.296Z,-3.10
2019-01-24T18:12:58.757Z,-3.10
2019-01-24T18:15:29.664Z,-3.20
2019-01-24T18:17:58.277Z,-3.20
2019-01-24T18:20:29.806Z,-3.20
2019-01-24T18:22:58.394Z,-3.40
2019-01-24T18:25:26.937Z,-3.40
2019-01-24T18:27:55.535Z,-3.40
2019-01-24T18:30:26.023Z,-3.50
2019-01-24T18:32:54.922Z,-3.50
2019-01-24T18:35:23.597Z,-3.60
2019-01-24T18:37:52.405Z,-3.60
2019-01-24T18:40:23.569Z,-3.70
2019-01-24T18:42:52.656Z,-3.70
2019-01-24T18:45:41.969Z,-3.70
2019-01-24T18:48:10.502Z,-3.80
2019-01-24T18:50:39.101Z,-3.80
2019-01-24T18:53:07.690Z,-3.90
2019-01-24T18:55:36.222Z,-3.90
2019-01-24T18:58:05.317Z,-3.90
2019-01-24T19:00:35.478Z,-3.90
2019-01-24T19:03:05.987Z,-3.90
2019-01-24T19:05:34.507Z,-3.90
2019-01-24T19:08:03.180Z,-4.10
2019-01-24T19:10:31.797Z,-4.10
2019-01-24T19:13:00.322Z,-4.20
2019-01-24T19:15:28.931Z,-4.10
2019-01-24T19:17:57.523Z,-4.10
2019-01-24T19:20:26.051Z,-4.10
2019-01-24T19:22:54.501Z,-4.00
2019-01-24T19:25:23.038Z,-3.90
2019-01-24T19:27:51.558Z,-4.00
2019-01-24T19:30:31.433Z,-4.10
2019-01-24T19:33:00.542Z,-4.00
2019-01-24T19:35:29.326Z,-4.10
2019-01-24T19:37:57.866Z,-4.20
2019-01-24T19:40:31.082Z,-4.20
2019-01-24T19:42:59.678Z,-4.30
2019-01-24T19:45:28.967Z,-4.40
2019-01-24T19:47:57.413Z,-4.40
2019-01-24T19:50:30.087Z,-4.50
2019-01-24T19:52:58.949Z,-4.60
2019-01-24T19:55:27.623Z,-4.60
2019-01-24T19:57:56.927Z,-4.60
2019-01-24T20:00:30.370Z,-4.60
2019-01-24T20:02:58.961Z,-4.60
2019-01-24T20:05:27.666Z,-4.60
2019-01-24T20:07:56.354Z,-4.50
2019-01-24T20:10:27.902Z,-4.40
2019-01-24T20:12:56.501Z,-4.40
2019-01-24T20:15:26.697Z,-4.50
2019-01-24T20:17:55.604Z,-4.50
2019-01-24T20:20:24.196Z,-4.50
2019-01-24T20:22:53.197Z,-4.40
2019-01-24T20:25:24.553Z,-4.40
2019-01-24T20:27:54.623Z,-4.30
2019-01-24T20:30:31.025Z,-4.30
2019-01-24T20:33:00.977Z,-4.30
2019-01-24T20:35:32.482Z,-4.50
2019-01-24T20:38:00.934Z,-4.40
2019-01-24T20:40:29.589Z,-4.50
2019-01-24T20:42:58.218Z,-4.40
2019-01-24T20:45:26.733Z,-4.40
2019-01-24T20:47:55.333Z,-4.40
2019-01-24T20:50:23.786Z,-4.30
2019-01-24T20:52:52.250Z,-4.20
2019-01-24T20:55:20.710Z,-4.20
2019-01-24T20:57:49.221Z,-4.20
2019-01-24T21:00:22.618Z,-4.30
2019-01-24T21:02:51.605Z,-4.20
2019-01-24T21:05:22.029Z,-4.10
2019-01-24T21:07:51.063Z,-4.20
2019-01-24T21:10:27.174Z,-4.10
2019-01-24T21:12:55.774Z,-4.10
2019-01-24T21:15:24.383Z,-4.00
2019-01-24T21:17:52.901Z,-4.00
2019-01-24T21:20:26.620Z,-3.90
2019-01-24T21:22:55.217Z,-4.00
2019-01-24T21:25:24.638Z,-3.90
2019-01-24T21:27:53.278Z,-3.80
2019-01-24T21:30:27.321Z,-3.70
2019-01-24T21:32:55.921Z,-3.50
2019-01-24T21:35:24.436Z,-3.40
2019-01-24T21:37:53.034Z,-3.30
2019-01-24T21:40:22.816Z,-3.30
2019-01-24T21:42:51.354Z,-3.30
2019-01-24T21:45:27.662Z,-3.30
2019-01-24T21:47:56.475Z,-3.30
2019-01-24T21:50:26.964Z,-3.00
2019-01-24T21:52:55.549Z,-2.90
2019-01-24T21:55:24.144Z,-2.70
2019-01-24T21:57:52.725Z,-2.20
2019-01-24T22:00:26.109Z,-2.00
2019-01-24T22:02:54.624Z,-2.10
2019-01-24T22:05:24.145Z,-2.10
2019-01-24T22:07:52.593Z,-2.00
2019-01-24T22:10:29.392Z,-1.80
2019-01-24T22:12:58.207Z,-1.80
2019-01-24T22:15:30.841Z,-1.70
2019-01-24T22:17:59.741Z,-1.60
2019-01-24T22:20:28.525Z,-1.40
2019-01-24T22:22:57.053Z,-1.40
2019-01-24T22:25:28.104Z,-1.40
2019-01-24T22:27:56.901Z,-1.40
2019-01-24T22:30:35.533Z,-1.40
2019-01-24T22:33:04.526Z,-1.50
2019-01-24T22:35:33.117Z,-1.70
2019-01-24T22:38:01.647Z,-1.40
2019-01-24T22:40:30.186Z,-1.50
2019-01-24T22:42:58.698Z,-1.50
2019-01-24T22:45:27.615Z,-1.50
2019-01-24T22:47:56.140Z,-1.40
2019-01-24T22:50:24.641Z,-1.60
2019-01-24T22:52:53.153Z,-1.90
2019-01-24T22:55:21.681Z,-2.00
2019-01-24T22:57:50.192Z,-2.20
2019-01-24T23:00:48.814Z,-2.00
2019-01-24T23:03:26.370Z,-1.60
2019-01-24T23:05:54.824Z,-1.50
2019-01-24T23:08:23.270Z,-1.70
2019-01-24T23:10:51.789Z,-1.80
2019-01-24T23:13:20.245Z,-1.60
2019-01-24T23:15:48.774Z,-1.50
2019-01-24T23:18:17.301Z,-1.50
2019-01-24T23:20:45.742Z,-1.30
2019-01-24T23:23:14.270Z,-1.40
2019-01-24T23:25:42.705Z,-1.20
2019-01-24T23:28:11.162Z,-1.30
2019-01-24T23:30:39.746Z,-1.20
2019-01-24T23:33:08.189Z,-1.30
2019-01-24T23:35:36.645Z,-1.20
2019-01-24T23:38:05.479Z,-1.20
2019-01-24T23:40:34.037Z,-1.30
2019-01-24T23:43:02.479Z,-1.30
2019-01-24T23:45:30.958Z,-1.30
2019-01-24T23:47:59.417Z,-1.20
2019-01-24T23:50:27.873Z,-1.20
2019-01-24T23:52:56.319Z,-1.30
2019-01-24T23:55:24.776Z,-1.50
2019-01-24T23:57:53.229Z,-1.50
